Conyers, Georgia
Current Conditions -  °F | °C
As of 6:15 AM on Saturday 20 Dec 2014 (Local Time) from KCVC Reporting Station
Light Rain Light Rain  
Wind Chill: 45°   Ceiling: 6000
Heat Index: 45°   Visibility: 5mi
Dew Point: 43°   Wind: 0mph
Humidity: 93%   Direction: NA
Pressure: 30.13"   Gusts: NA
Location:  33.66°N, 84.02°W
Report Text: KCVC 201115Z AUTO 00000KT 5SM -RA BKN060 OVC075 07/06 A3013 RMK AO2
Loading
Personal Weather Stations






























Interactive Weather Map New forecast layout! Learn more

10-Day Weather Forecast

Advertisements
Track Severe Weather on mobile